Time;durP1;ratioP1;P1;durP2;ratioP2;P2;SDS_P1;SDS_P2;PMS_P1;PMS_P2;Temp;Humidity;BMP_temperature;BMP_pressure;BME280_temperature;BME280_humidity;BME280_pressure;Samples;Min_cycle;Max_cycle;Signal;HPM_P1;HPM_P2
2022/05/10 00:02:01;;;;;;;9.43;7.70;;;13.50;99.90;;;;;;4975334;28;20289;-78
2022/05/10 00:04:27;;;;;;;8.73;7.20;;;13.50;99.90;;;;;;4976886;28;20214;-78
2022/05/10 00:06:54;;;;;;;9.03;7.07;;;13.50;99.90;;;;;;4974374;28;20269;-78
2022/05/10 00:09:27;;;;;;;13.43;7.40;;;13.50;99.90;;;;;;4974918;28;20175;-77
2022/05/10 00:11:53;;;;;;;8.27;7.17;;;13.50;99.90;;;;;;4974323;28;20213;-77
2022/05/10 00:14:19;;;;;;;8.43;7.53;;;13.50;99.90;;;;;;4974829;28;20206;-77
2022/05/10 00:16:45;;;;;;;9.47;7.67;;;13.50;99.90;;;;;;4973562;28;20498;-77
2022/05/10 00:19:14;;;;;;;9.03;7.40;;;13.50;99.90;;;;;;4974762;28;20178;-77
2022/05/10 00:21:40;;;;;;;12.63;8.07;;;13.30;99.90;;;;;;4975441;28;20297;-78
2022/05/10 00:24:06;;;;;;;9.03;7.50;;;13.40;99.90;;;;;;4973452;28;20614;-77
2022/05/10 00:26:31;;;;;;;8.27;7.17;;;13.40;99.90;;;;;;4973234;28;20187;-77
2022/05/10 00:28:57;;;;;;;8.17;7.33;;;13.40;99.90;;;;;;4972291;28;20182;-75
2022/05/10 00:31:23;;;;;;;9.30;7.87;;;13.40;99.90;;;;;;4972747;28;20256;-77
2022/05/10 00:33:48;;;;;;;8.40;7.60;;;13.40;99.90;;;;;;4972164;28;20206;-77
2022/05/10 00:36:16;;;;;;;7.90;7.20;;;13.40;99.90;;;;;;4972400;28;20185;-77
2022/05/10 00:38:42;;;;;;;8.77;7.60;;;13.40;99.90;;;;;;4974476;28;20240;-77
2022/05/10 00:41:27;;;;;;;8.40;7.60;;;13.30;99.90;;;;;;4973617;28;20174;-78
2022/05/10 00:44:03;;;;;;;10.13;7.57;;;13.30;99.90;;;;;;4974292;28;20163;-77
2022/05/10 00:46:34;;;;;;;9.10;8.17;;;13.30;99.90;;;;;;4972852;28;20244;-78
2022/05/10 00:49:12;;;;;;;9.20;8.30;;;13.30;99.90;;;;;;4973786;28;20228;-78
2022/05/10 00:52:07;;;;;;;7.77;7.07;;;13.30;99.90;;;;;;4974895;28;20243;-77
2022/05/10 00:54:41;;;;;;;7.93;7.23;;;13.30;99.90;;;;;;4975218;28;20191;-79
2022/05/10 00:57:27;;;;;;;9.37;7.83;;;13.30;99.90;;;;;;4981084;28;20178;-80
2022/05/10 01:00:16;;;;;;;8.30;7.17;;;13.30;99.90;;;;;;4976331;28;20173;-79
2022/05/10 01:03:09;;;;;;;8.83;7.43;;;13.30;99.90;;;;;;4979906;28;20615;-80
2022/05/10 01:05:49;;;;;;;9.20;7.33;;;13.30;99.90;;;;;;4975400;28;20216;-79
2022/05/10 01:08:32;;;;;;;8.73;7.00;;;13.30;99.90;;;;;;4974525;28;20579;-77
2022/05/10 01:11:24;;;;;;;9.17;6.43;;;13.30;99.90;;;;;;4972630;28;20481;-76
2022/05/10 01:14:07;;;;;;;8.17;6.97;;;13.30;99.90;;;;;;4971349;28;20206;-77
2022/05/10 01:16:33;;;;;;;9.90;7.27;;;13.20;99.90;;;;;;4973407;28;20613;-78
2022/05/10 01:18:59;;;;;;;7.90;7.03;;;13.20;99.90;;;;;;4973577;28;20179;-77
2022/05/10 01:21:39;;;;;;;8.60;7.70;;;13.20;99.90;;;;;;4970836;28;20210;-76
2022/05/10 01:24:21;;;;;;;8.37;7.53;;;13.20;99.90;;;;;;4973162;28;20580;-79
2022/05/10 01:26:52;;;;;;;10.13;6.93;;;13.20;99.90;;;;;;4974766;28;20182;-78
2022/05/10 01:29:29;;;;;;;9.63;7.80;;;13.20;99.90;;;;;;4977810;28;20170;-78
2022/05/10 01:34:45;;;;;;;8.00;7.10;;;13.20;99.90;;;;;;4978573;28;20674;-77
2022/05/10 01:37:19;;;;;;;8.57;7.30;;;13.20;99.90;;;;;;4979767;28;20241;-78
2022/05/10 01:39:50;;;;;;;8.70;6.90;;;13.10;99.90;;;;;;4973950;28;20170;-77
2022/05/10 01:42:44;;;;;;;8.80;7.90;;;13.20;99.90;;;;;;4973433;28;20221;-77
2022/05/10 01:45:20;;;;;;;8.70;7.23;;;13.20;99.90;;;;;;4970734;28;20194;-77
2022/05/10 01:47:55;;;;;;;8.90;7.47;;;13.20;99.90;;;;;;4973742;28;20181;-78
2022/05/10 01:50:57;;;;;;;8.10;6.93;;;13.20;99.90;;;;;;4973828;28;20174;-78
2022/05/10 01:53:34;;;;;;;7.60;6.50;;;13.10;99.90;;;;;;4973305;28;20270;-77
2022/05/10 01:56:06;;;;;;;9.40;6.97;;;13.10;99.90;;;;;;4971033;28;20257;-76
2022/05/10 01:58:35;;;;;;;8.67;7.00;;;13.10;99.90;;;;;;4972032;28;20624;-77
2022/05/10 02:01:03;;;;;;;7.20;6.50;;;13.10;99.90;;;;;;4970113;28;20178;-77
2022/05/10 02:03:42;;;;;;;6.77;6.07;;;13.10;99.90;;;;;;4970965;28;20277;-77
2022/05/10 02:06:30;;;;;;;7.10;6.40;;;13.10;99.90;;;;;;4970215;28;20170;-77
2022/05/10 02:09:01;;;;;;;7.70;6.30;;;13.10;99.90;;;;;;4971751;28;20250;-76
2022/05/10 02:11:28;;;;;;;7.57;6.60;;;13.00;99.90;;;;;;4972521;28;20250;-77
2022/05/10 02:13:56;;;;;;;8.07;6.37;;;13.00;99.90;;;;;;4976285;28;20281;-78
2022/05/10 02:16:57;;;;;;;10.13;6.37;;;13.00;99.90;;;;;;4977075;28;20228;-78
2022/05/10 02:19:38;;;;;;;9.83;6.80;;;13.00;99.90;;;;;;4975749;28;20196;-78
2022/05/10 02:22:08;;;;;;;7.17;6.57;;;13.00;99.90;;;;;;4973790;28;20218;-78
2022/05/10 02:24:43;;;;;;;8.97;6.90;;;12.90;99.90;;;;;;4975682;28;20264;-78
2022/05/10 02:27:27;;;;;;;8.13;6.17;;;12.90;99.90;;;;;;4975860;28;20172;-77
2022/05/10 02:30:07;;;;;;;6.43;5.90;;;12.90;99.90;;;;;;4975838;28;20242;-78
2022/05/10 02:35:22;;;;;;;7.70;6.47;;;12.80;99.90;;;;;;4976813;28;20205;-78
2022/05/10 02:37:48;;;;;;;7.47;6.20;;;12.80;99.90;;;;;;4976859;28;20175;-77
2022/05/10 02:40:14;;;;;;;8.47;7.57;;;12.70;99.90;;;;;;4977435;28;20186;-78
2022/05/10 02:42:43;;;;;;;8.03;7.03;;;12.70;99.90;;;;;;4975459;28;20202;-78
2022/05/10 02:45:09;;;;;;;12.20;7.37;;;12.60;99.90;;;;;;4973606;28;20187;-77
2022/05/10 02:47:37;;;;;;;8.40;6.80;;;12.60;99.90;;;;;;4973223;28;20185;-77
2022/05/10 02:50:05;;;;;;;7.90;6.93;;;12.60;99.90;;;;;;4973196;28;20189;-78
2022/05/10 02:52:31;;;;;;;7.27;6.50;;;12.60;99.90;;;;;;4977161;28;20218;-78
2022/05/10 02:55:29;;;;;;;7.80;7.00;;;12.50;99.90;;;;;;4979035;28;20275;-78
2022/05/10 02:58:00;;;;;;;10.50;7.37;;;12.50;99.90;;;;;;4961511;28;20191;-77
2022/05/10 03:00:27;;;;;;;7.93;7.07;;;12.50;99.90;;;;;;4976841;28;20238;-77
2022/05/10 03:02:59;;;;;;;7.47;6.70;;;12.50;99.90;;;;;;4984287;28;20563;-78
2022/05/10 03:05:25;;;;;;;8.80;7.60;;;12.60;99.90;;;;;;4977889;28;20661;-78
2022/05/10 03:07:53;;;;;;;8.10;7.27;;;12.50;99.90;;;;;;4980200;28;20206;-78
2022/05/10 03:10:20;;;;;;;8.93;7.63;;;12.50;99.90;;;;;;4978204;28;20245;-78
2022/05/10 03:12:45;;;;;;;8.07;7.27;;;12.60;99.90;;;;;;4979686;28;20205;-78
2022/05/10 03:15:11;;;;;;;8.10;7.30;;;12.50;99.90;;;;;;4980540;28;20226;-78
2022/05/10 03:17:37;;;;;;;8.73;7.10;;;12.50;99.90;;;;;;4978570;28;20600;-77
2022/05/10 03:20:03;;;;;;;8.33;7.57;;;12.60;99.90;;;;;;4978637;28;20185;-78
2022/05/10 03:22:29;;;;;;;11.87;7.60;;;12.60;99.90;;;;;;4977531;28;20218;-78
2022/05/10 03:24:54;;;;;;;7.93;6.87;;;12.60;99.90;;;;;;4977084;28;20189;-78
2022/05/10 03:27:20;;;;;;;8.37;7.50;;;12.60;99.90;;;;;;4978918;28;20182;-78
2022/05/10 03:29:46;;;;;;;9.40;6.90;;;12.60;99.90;;;;;;4979190;28;20197;-78
2022/05/10 03:32:12;;;;;;;8.77;7.37;;;12.60;99.90;;;;;;4978213;28;20209;-78
2022/05/10 03:34:57;;;;;;;9.43;7.50;;;12.60;99.90;;;;;;4978226;28;20300;-77
2022/05/10 03:37:25;;;;;;;10.03;6.87;;;12.60;99.90;;;;;;4977383;28;20194;-78
2022/05/10 03:39:51;;;;;;;8.27;6.80;;;12.50;99.90;;;;;;4979851;28;20171;-78
2022/05/10 03:42:17;;;;;;;8.80;7.33;;;12.60;99.90;;;;;;4978131;28;20194;-78
2022/05/10 03:44:42;;;;;;;9.90;6.80;;;12.50;99.90;;;;;;4977738;28;20515;-78
2022/05/10 03:47:09;;;;;;;8.63;6.57;;;12.50;99.90;;;;;;4978450;28;20182;-78
2022/05/10 03:49:36;;;;;;;9.23;7.20;;;12.50;99.90;;;;;;4980300;28;20627;-78
2022/05/10 03:52:02;;;;;;;8.40;6.73;;;12.50;99.90;;;;;;4978457;28;20530;-77
2022/05/10 03:54:27;;;;;;;7.90;7.10;;;12.50;99.90;;;;;;4978216;28;20198;-78
2022/05/10 03:56:53;;;;;;;10.03;7.20;;;12.50;99.90;;;;;;4979170;28;20182;-78
2022/05/10 03:59:19;;;;;;;7.63;6.43;;;12.50;99.90;;;;;;4976935;28;20270;-78
2022/05/10 04:01:46;;;;;;;6.97;6.27;;;12.50;99.90;;;;;;4979236;28;20190;-78
2022/05/10 04:04:11;;;;;;;7.40;6.30;;;12.50;99.90;;;;;;4977258;28;20179;-78
2022/05/10 04:06:37;;;;;;;7.33;6.63;;;12.50;99.90;;;;;;4977317;28;20188;-78
2022/05/10 04:09:03;;;;;;;9.13;6.53;;;12.50;99.90;;;;;;4979017;28;20182;-78
2022/05/10 04:11:29;;;;;;;7.97;6.30;;;12.50;99.90;;;;;;4976637;28;20182;-77
2022/05/10 04:13:54;;;;;;;7.70;5.97;;;12.50;99.90;;;;;;4977829;28;20290;-78
2022/05/10 04:16:20;;;;;;;6.53;5.93;;;12.50;99.90;;;;;;4979372;28;20632;-78
2022/05/10 04:18:46;;;;;;;6.80;6.13;;;12.50;99.90;;;;;;4979650;28;20174;-78
2022/05/10 04:21:12;;;;;;;7.33;6.63;;;12.50;99.90;;;;;;4978514;28;20227;-77
2022/05/10 04:23:37;;;;;;;7.63;6.77;;;12.50;99.90;;;;;;4977908;28;20660;-78
2022/05/10 04:26:08;;;;;;;7.33;6.63;;;12.50;99.90;;;;;;4976408;28;20214;-77
2022/05/10 04:28:35;;;;;;;6.80;6.00;;;12.60;99.90;;;;;;4974630;28;20170;-77
2022/05/10 04:31:02;;;;;;;7.03;6.33;;;12.50;99.90;;;;;;4974407;28;20182;-78
2022/05/10 04:33:27;;;;;;;6.70;6.10;;;12.60;99.90;;;;;;4973086;28;20210;-79
2022/05/10 04:35:54;;;;;;;7.00;6.30;;;12.50;99.90;;;;;;4972742;28;20238;-78
2022/05/10 04:38:19;;;;;;;7.57;6.50;;;12.50;99.90;;;;;;4974223;28;20175;-78
2022/05/10 04:43:30;;;;;;;8.27;6.67;;;12.50;99.90;;;;;;4983730;28;20205;-79
2022/05/10 04:45:56;;;;;;;8.17;6.20;;;12.50;99.90;;;;;;4984067;28;20186;-80
2022/05/10 04:48:21;;;;;;;8.10;6.53;;;12.50;99.90;;;;;;4981973;28;20251;-81
2022/05/10 04:50:48;;;;;;;7.00;6.30;;;12.60;99.90;;;;;;4989788;28;20182;-80
2022/05/10 04:53:14;;;;;;;7.20;6.47;;;12.50;99.90;;;;;;4987154;28;20198;-80
2022/05/10 04:55:39;;;;;;;8.20;6.30;;;12.50;99.90;;;;;;4974882;28;20174;-79
2022/05/10 04:58:05;;;;;;;7.37;6.03;;;12.50;99.90;;;;;;4977569;28;20666;-80
2022/05/10 05:00:31;;;;;;;6.53;5.93;;;12.60;99.90;;;;;;4975586;28;20179;-79
2022/05/10 05:02:56;;;;;;;6.97;6.20;;;12.60;99.90;;;;;;4975313;28;20205;-80
2022/05/10 05:05:22;;;;;;;5.80;5.30;;;12.60;99.90;;;;;;4974300;28;20201;-80
2022/05/10 05:07:48;;;;;;;6.90;6.30;;;12.60;99.90;;;;;;4974396;28;20237;-80
2022/05/10 05:10:13;;;;;;;6.30;5.70;;;12.60;99.90;;;;;;4974314;28;20181;-80
2022/05/10 05:12:39;;;;;;;8.67;6.23;;;12.60;99.90;;;;;;4973595;28;20206;-80
2022/05/10 05:15:08;;;;;;;6.77;6.17;;;12.70;99.90;;;;;;4974280;28;20258;-80
2022/05/10 05:17:33;;;;;;;7.80;6.17;;;12.70;99.90;;;;;;4981764;28;20174;-79
2022/05/10 05:19:59;;;;;;;8.33;6.33;;;12.70;99.90;;;;;;4984426;28;20279;-80
2022/05/10 05:22:26;;;;;;;7.27;6.50;;;12.70;99.90;;;;;;5013548;22;20277;-78
2022/05/10 05:24:52;;;;;;;9.43;6.53;;;12.80;99.90;;;;;;5038609;28;20226;-78
2022/05/10 05:27:19;;;;;;;6.90;6.20;;;12.80;99.90;;;;;;5037383;28;20180;-77
2022/05/10 05:29:45;;;;;;;7.90;7.13;;;12.80;99.90;;;;;;5035555;28;20187;-77
2022/05/10 05:32:11;;;;;;;7.77;6.30;;;12.90;99.90;;;;;;5037830;28;20175;-76
2022/05/10 05:34:37;;;;;;;8.70;5.97;;;12.90;99.90;;;;;;5035489;28;20211;-77
2022/05/10 05:39:48;;;;;;;7.30;6.00;;;13.00;99.90;;;;;;5035079;28;20160;-77
2022/05/10 05:42:13;;;;;;;6.90;6.20;;;13.10;99.90;;;;;;5036440;28;20176;-78
2022/05/10 05:44:39;;;;;;;12.67;6.57;;;13.10;99.90;;;;;;5034211;28;20536;-77
2022/05/10 05:47:05;;;;;;;7.60;6.40;;;13.10;99.90;;;;;;5033966;28;20172;-77
2022/05/10 05:49:31;;;;;;;7.70;6.90;;;13.20;99.90;;;;;;5035926;28;20175;-78
2022/05/10 05:52:01;;;;;;;7.77;6.33;;;13.20;99.90;;;;;;5018732;28;20172;-77
2022/05/10 05:54:27;;;;;;;9.27;6.77;;;13.30;99.90;;;;;;5034762;28;20203;-76
2022/05/10 05:57:04;;;;;;;7.97;6.10;;;13.30;99.90;;;;;;5032968;28;20168;-76
2022/05/10 05:59:31;;;;;;;8.30;6.77;;;13.40;99.90;;;;;;5016416;28;20180;-77
2022/05/10 06:01:56;;;;;;;8.57;6.80;;;13.50;99.90;;;;;;5015813;28;20172;-75
2022/05/10 06:04:23;;;;;;;8.70;7.07;;;13.50;99.90;;;;;;5032930;28;20202;-78
2022/05/10 06:06:48;;;;;;;8.83;7.20;;;13.70;99.90;;;;;;5034340;28;20183;-76
2022/05/10 06:09:14;;;;;;;9.53;6.70;;;13.70;99.90;;;;;;5033300;28;20557;-77
2022/05/10 06:11:41;;;;;;;9.67;6.90;;;13.80;99.90;;;;;;5016591;28;20202;-75
2022/05/10 06:14:07;;;;;;;13.27;6.97;;;13.90;99.90;;;;;;5015023;28;20569;-76
2022/05/10 06:16:33;;;;;;;8.80;7.30;;;14.00;99.90;;;;;;5032887;28;20173;-76
2022/05/10 06:18:59;;;;;;;10.37;6.57;;;14.00;99.90;;;;;;5034819;28;20177;-78
2022/05/10 06:21:24;;;;;;;7.33;6.43;;;14.10;99.90;;;;;;5036704;28;20238;-77
2022/05/10 06:23:50;;;;;;;7.13;6.43;;;14.20;99.90;;;;;;5016867;28;20212;-77
2022/05/10 06:26:16;;;;;;;9.73;5.70;;;14.30;99.90;;;;;;5035991;28;20631;-78
2022/05/10 06:28:41;;;;;;;7.50;6.10;;;14.30;99.90;;;;;;5039987;28;20251;-78
2022/05/10 06:31:09;;;;;;;8.13;6.00;;;14.40;99.90;;;;;;5022438;28;20600;-78
2022/05/10 06:33:36;;;;;;;9.97;5.87;;;14.50;99.90;;;;;;5038255;28;20265;-77
2022/05/10 06:36:01;;;;;;;6.20;5.20;;;14.60;99.90;;;;;;5020855;28;20210;-77
2022/05/10 06:38:27;;;;;;;7.43;5.80;;;14.70;99.90;;;;;;5020842;28;20176;-77
2022/05/10 06:41:04;;;;;;;8.40;5.53;;;14.70;99.90;;;;;;5020729;28;20176;-77
2022/05/10 06:43:30;;;;;;;8.80;5.63;;;14.70;99.90;;;;;;5038834;28;20547;-77
2022/05/10 06:45:59;;;;;;;6.27;5.53;;;14.90;99.90;;;;;;5020570;28;20180;-77
2022/05/10 06:48:25;;;;;;;6.40;5.63;;;15.00;99.90;;;;;;5038611;28;20189;-77
2022/05/10 06:50:50;;;;;;;7.33;5.60;;;15.10;99.90;;;;;;5038835;28;20657;-77
2022/05/10 06:53:16;;;;;;;7.47;5.63;;;15.20;99.90;;;;;;5038755;28;20196;-78
2022/05/10 06:55:42;;;;;;;11.43;5.67;;;15.30;99.90;;;;;;5038395;28;20172;-77
2022/05/10 06:58:08;;;;;;;7.07;5.50;;;15.50;99.90;;;;;;5020571;28;20605;-77
2022/05/10 07:00:38;;;;;;;5.80;5.30;;;15.60;99.90;;;;;;5038139;28;20633;-77
2022/05/10 07:03:05;;;;;;;6.83;4.90;;;15.70;99.90;;;;;;5020397;28;20246;-78
2022/05/10 07:05:31;;;;;;;8.47;5.80;;;15.80;99.90;;;;;;5040290;28;20541;-78
2022/05/10 07:07:56;;;;;;;7.20;5.60;;;15.90;67.10;;;;;;5040328;28;20189;-78
2022/05/10 07:10:22;;;;;;;5.90;5.00;;;16.00;8.40;;;;;;5043480;28;20210;-78
2022/05/10 07:12:47;;;;;;;9.93;5.13;;;16.10;1.00;;;;;;5044023;28;20192;-77
2022/05/10 07:15:17;;;;;;;6.13;5.03;;;16.20;1.00;;;;;;5049200;28;20204;-77
2022/05/10 07:17:42;;;;;;;5.63;5.03;;;16.40;1.00;;;;;;5049321;28;20176;-77
2022/05/10 07:20:11;;;;;;;7.57;4.80;;;16.50;1.00;;;;;;5041174;28;20172;-77
2022/05/10 07:22:37;;;;;;;9.67;5.73;;;16.60;1.00;;;;;;5043831;28;20258;-78
2022/05/10 07:25:03;;;;;;;4.87;4.47;;;16.70;1.00;;;;;;5040671;28;20619;-78
2022/05/10 07:27:28;;;;;;;6.00;5.20;;;16.80;1.00;;;;;;5020089;28;20184;-78
2022/05/10 07:29:54;;;;;;;5.47;4.97;;;16.90;1.00;;;;;;5038195;28;20180;-78
2022/05/10 07:32:20;;;;;;;9.20;5.20;;;17.10;99.90;;;;;;5020106;28;20654;-78
2022/05/10 07:34:47;;;;;;;5.87;4.43;;;17.20;1.00;;;;;;5021065;28;20585;-77
2022/05/10 07:37:13;;;;;;;7.37;4.83;;;17.30;99.90;;;;;;5019732;28;20267;-78
2022/05/10 07:39:38;;;;;;;5.93;4.67;;;17.40;1.00;;;;;;5037699;28;20172;-78
2022/05/10 07:42:04;;;;;;;6.83;4.60;;;17.40;99.90;;;;;;5038320;28;20585;-78
2022/05/10 07:44:31;;;;;;;6.60;4.77;;;17.40;1.00;;;;;;5037794;28;20203;-78
2022/05/10 07:46:57;;;;;;;6.80;4.57;;;17.50;1.00;;;;;;5038054;28;20180;-78
2022/05/10 07:49:23;;;;;;;7.93;4.23;;;17.60;1.00;;;;;;5037964;28;20247;-78
2022/05/10 07:51:48;;;;;;;5.50;4.07;;;17.80;99.90;;;;;;5037541;28;20690;-78
2022/05/10 07:54:14;;;;;;;6.13;4.10;;;17.90;1.00;;;;;;5037564;28;20223;-78
2022/05/10 07:56:41;;;;;;;4.20;3.80;;;17.90;99.90;;;;;;5037426;28;20255;-78
2022/05/10 07:59:07;;;;;;;7.27;4.10;;;18.00;99.90;;;;;;5019959;28;20176;-78
2022/05/10 08:01:32;;;;;;;6.70;3.73;;;18.10;74.90;;;;;;5037637;28;20176;-78
2022/05/10 08:03:58;;;;;;;5.17;4.10;;;18.20;1.00;;;;;;5037169;28;20200;-79
2022/05/10 08:06:24;;;;;;;6.80;4.30;;;18.20;99.90;;;;;;5019244;28;20234;-78
2022/05/10 08:08:50;;;;;;;6.03;4.03;;;18.30;1.00;;;;;;5037066;28;20549;-78
2022/05/10 08:11:16;;;;;;;5.30;4.00;;;18.40;1.00;;;;;;5037577;28;20255;-78
2022/05/10 08:13:41;;;;;;;4.27;3.57;;;18.50;99.90;;;;;;5037099;28;20200;-78
2022/05/10 08:16:09;;;;;;;6.47;4.17;;;18.60;99.90;;;;;;5036572;28;20190;-78
2022/05/10 08:18:35;;;;;;;4.67;3.47;;;18.60;99.90;;;;;;5018757;28;20187;-78
2022/05/10 08:21:02;;;;;;;12.47;4.50;;;18.80;99.90;;;;;;5036739;28;20547;-78
2022/05/10 08:23:31;;;;;;;8.07;4.50;;;18.80;80.20;;;;;;5036710;28;20582;-78
2022/05/10 08:25:58;;;;;;;6.37;4.20;;;18.90;1.00;;;;;;5036878;28;20183;-77
2022/05/10 08:28:25;;;;;;;5.03;4.23;;;19.00;99.90;;;;;;5037228;28;20230;-78
2022/05/10 08:30:51;;;;;;;6.37;3.97;;;19.20;99.90;;;;;;5036627;28;20250;-78
2022/05/10 08:33:23;;;;;;;5.17;3.87;;;19.30;99.90;;;;;;5036024;28;20249;-78
2022/05/10 08:35:49;;;;;;;5.13;4.10;;;19.40;99.90;;;;;;5036767;28;20176;-77
2022/05/10 08:38:15;;;;;;;10.13;3.57;;;19.50;99.90;;;;;;5036269;28;20211;-77
2022/05/10 08:41:13;;;;;;;6.97;3.80;;;19.70;99.90;;;;;;5036364;28;20222;-78
2022/05/10 08:43:49;;;;;;;6.47;3.67;;;19.80;99.90;;;;;;5001955;28;20200;-78
2022/05/10 08:46:17;;;;;;;4.93;4.17;;;19.90;99.90;;;;;;5018136;28;20161;-78
2022/05/10 08:48:46;;;;;;;6.60;4.07;;;20.10;1.00;;;;;;5018100;28;20219;-76
2022/05/10 08:51:12;;;;;;;5.03;4.37;;;20.20;99.90;;;;;;5017191;28;20199;-77
2022/05/10 08:53:38;;;;;;;7.03;4.40;;;20.40;1.00;;;;;;5034405;28;20207;-77
2022/05/10 08:56:15;;;;;;;8.77;3.60;;;20.50;23.90;;;;;;5034300;28;20177;-78
2022/05/10 08:59:02;;;;;;;9.77;4.20;;;20.60;1.00;;;;;;5016576;28;20214;-78
2022/05/10 09:01:33;;;;;;;6.20;3.77;;;20.70;1.00;;;;;;5034436;28;20175;-78
2022/05/10 09:04:38;;;;;;;9.90;3.87;;;20.80;1.00;;;;;;5016414;28;20235;-78
2022/05/10 09:07:24;;;;;;;5.73;4.33;;;20.90;1.00;;;;;;5034258;28;20230;-78
2022/05/10 09:10:06;;;;;;;7.93;4.20;;;21.00;1.00;;;;;;5034645;28;20160;-77
2022/05/10 09:12:44;;;;;;;8.43;4.10;;;21.10;1.00;;;;;;5035268;28;20211;-78
2022/05/10 09:15:12;;;;;;;6.60;3.50;;;21.10;1.00;;;;;;5039331;28;20199;-78
2022/05/10 09:17:39;;;;;;;6.53;4.00;;;21.30;1.00;;;;;;5038579;28;20593;-78
2022/05/10 09:20:07;;;;;;;8.50;3.77;;;21.40;1.00;;;;;;5034254;28;20646;-78
2022/05/10 09:22:52;;;;;;;5.07;3.67;;;21.50;99.90;;;;;;5016230;28;20200;-78
2022/05/10 09:25:36;;;;;;;5.90;3.50;;;21.60;99.90;;;;;;5016641;28;20172;-78
2022/05/10 09:28:10;;;;;;;11.77;4.23;;;21.60;99.90;;;;;;5034235;28;20606;-78
2022/05/10 09:30:36;;;;;;;7.67;3.80;;;21.70;1.00;;;;;;5034124;28;20733;-78
2022/05/10 09:36:10;;;;;;;6.93;4.00;;;21.90;99.90;;;;;;5034731;28;20176;-78
2022/05/10 09:38:44;;;;;;;7.90;3.90;;;22.00;99.90;;;;;;5034225;28;20172;-78
2022/05/10 09:41:42;;;;;;;8.87;4.30;;;22.10;99.90;;;;;;5034698;28;20159;-78
2022/05/10 09:44:27;;;;;;;8.57;3.90;;;22.30;99.90;;;;;;5016485;28;20670;-78
2022/05/10 09:47:11;;;;;;;6.50;3.40;;;22.60;69.80;;;;;;5034798;28;20666;-77
2022/05/10 09:49:38;;;;;;;4.73;3.40;;;22.80;91.40;;;;;;5034595;28;20161;-77
2022/05/10 09:52:06;;;;;;;5.87;3.60;;;23.10;1.00;;;;;;5016267;28;20180;-78
2022/05/10 09:54:35;;;;;;;9.73;3.40;;;23.10;99.90;;;;;;5016374;28;20630;-78
2022/05/10 09:57:01;;;;;;;6.47;2.90;;;23.10;99.90;;;;;;5016282;28;20172;-78
2022/05/10 09:59:39;;;;;;;3.93;2.73;;;23.30;1.00;;;;;;5016500;28;20179;-78
2022/05/10 10:02:05;;;;;;;4.73;2.63;;;23.40;1.00;;;;;;5040695;28;20156;-78
2022/05/10 10:04:32;;;;;;;11.63;2.73;;;23.50;99.90;;;;;;5041042;28;20184;-76
2022/05/10 10:07:13;;;;;;;6.57;2.47;;;23.60;1.00;;;;;;5042747;28;20685;-78
2022/05/10 10:09:41;;;;;;;3.70;2.70;;;23.70;1.00;;;;;;5043394;28;20210;-79
2022/05/10 10:12:31;;;;;;;3.70;2.30;;;23.80;99.90;;;;;;5023582;28;20212;-78
2022/05/10 10:14:57;;;;;;;8.50;2.40;;;23.70;99.90;;;;;;5041174;28;20238;-78
2022/05/10 10:17:32;;;;;;;8.37;2.70;;;23.70;1.00;;;;;;5041139;28;20168;-78
2022/05/10 10:20:22;;;;;;;5.20;2.80;;;23.80;62.70;;;;;;5023154;28;20669;-78
2022/05/10 10:22:52;;;;;;;5.33;2.53;;;23.80;22.30;;;;;;5022978;28;20214;-77
2022/05/10 10:25:23;;;;;;;7.40;3.10;;;23.70;47.50;;;;;;5022654;28;20194;-78
2022/05/10 10:27:58;;;;;;;3.40;2.47;;;23.70;1.00;;;;;;5023012;28;20164;-77
2022/05/10 10:30:34;;;;;;;3.63;2.50;;;23.60;1.00;;;;;;5023088;28;20234;-78
2022/05/10 10:33:12;;;;;;;4.40;2.70;;;23.60;1.00;;;;;;5022906;28;20745;-78
2022/05/10 10:35:45;;;;;;;5.30;2.80;;;23.70;1.00;;;;;;5040346;28;20187;-77
2022/05/10 10:38:31;;;;;;;3.00;2.40;;;23.60;1.00;;;;;;5040609;28;20191;-79
2022/05/10 10:41:18;;;;;;;5.60;2.63;;;23.70;1.00;;;;;;5022232;28;20184;-78
2022/05/10 10:43:59;;;;;;;9.00;2.90;;;23.70;1.00;;;;;;5022802;28;20196;-77
2022/05/10 10:46:34;;;;;;;4.90;2.70;;;23.70;1.00;;;;;;5040874;28;20264;-78
2022/05/10 10:49:12;;;;;;;3.77;2.40;;;23.70;1.00;;;;;;5040432;28;20152;-78
2022/05/10 10:51:38;;;;;;;4.93;2.30;;;23.80;1.00;;;;;;5040303;28;20182;-78
2022/05/10 10:54:07;;;;;;;5.00;2.60;;;23.80;1.00;;;;;;5022438;28;20196;-78
2022/05/10 10:56:42;;;;;;;3.47;2.30;;;23.80;1.00;;;;;;5022630;28;20535;-80
2022/05/10 10:59:21;;;;;;;4.53;2.83;;;23.70;1.00;;;;;;5022840;28;20221;-78
2022/05/10 11:02:29;;;;;;;3.50;2.30;;;23.70;1.00;;;;;;5022602;28;20200;-78
2022/05/10 11:05:28;;;;;;;5.27;2.60;;;23.60;1.00;;;;;;5040321;28;20227;-78
2022/05/10 11:08:08;;;;;;;5.47;2.70;;;23.60;1.00;;;;;;5040719;28;20706;-78
2022/05/10 11:10:34;;;;;;;5.37;2.70;;;23.60;1.00;;;;;;5022249;28;20168;-77
2022/05/10 11:13:23;;;;;;;2.40;2.20;;;23.60;1.00;;;;;;5036091;28;20720;-77
2022/05/10 11:16:28;;;;;;;6.03;3.03;;;23.80;1.00;;;;;;5036178;28;20184;-77
2022/05/10 11:19:22;;;;;;;3.63;2.50;;;23.90;1.00;;;;;;4999527;28;20187;-78
2022/05/10 11:22:03;;;;;;;7.00;2.47;;;23.90;1.00;;;;;;5036236;28;20188;-78
2022/05/10 11:24:45;;;;;;;2.77;2.57;;;24.00;1.00;;;;;;5036363;28;20207;-79
2022/05/10 11:27:39;;;;;;;3.00;2.50;;;24.00;1.00;;;;;;5018804;28;20176;-78
2022/05/10 11:30:15;;;;;;;5.97;2.53;;;24.00;1.00;;;;;;5036367;28;20558;-78
2022/05/10 11:32:40;;;;;;;6.50;2.60;;;23.90;1.00;;;;;;5018915;28;20246;-78
2022/05/10 11:35:11;;;;;;;4.80;2.40;;;23.90;1.00;;;;;;5036515;28;20196;-78
2022/05/10 11:37:44;;;;;;;3.50;2.43;;;23.80;1.00;;;;;;5036361;28;20210;-77
2022/05/10 11:40:37;;;;;;;9.67;3.50;;;23.70;1.00;;;;;;5075630;22;20284;-76
2022/05/10 11:43:12;;;;;;;5.53;2.50;;;23.80;1.00;;;;;;5037437;28;20189;-77
2022/05/10 11:45:58;;;;;;;5.37;2.67;;;23.90;1.00;;;;;;5055863;28;20206;-78
2022/05/10 11:48:50;;;;;;;3.47;2.33;;;23.90;1.00;;;;;;5055501;28;20198;-77
2022/05/10 11:51:38;;;;;;;7.30;2.60;;;24.00;1.00;;;;;;5035184;28;20156;-77
2022/05/10 11:54:38;;;;;;;3.10;2.60;;;24.10;1.00;;;;;;5017382;28;20283;-76
2022/05/10 11:57:08;;;;;;;2.77;2.23;;;24.20;99.90;;;;;;5035746;28;20149;-78
2022/05/10 11:59:36;;;;;;;2.97;2.30;;;24.30;99.90;;;;;;5017560;28;20238;-77
2022/05/10 12:02:04;;;;;;;3.70;2.47;;;24.50;1.00;;;;;;5017404;28;20173;-77
2022/05/10 12:04:42;;;;;;;7.33;2.43;;;24.60;1.00;;;;;;5017187;28;20738;-77
2022/05/10 12:07:20;;;;;;;10.47;3.10;;;24.70;1.00;;;;;;5035459;28;20163;-78
2022/05/10 12:10:26;;;;;;;4.93;2.90;;;24.70;99.90;;;;;;5034815;28;20192;-77
2022/05/10 12:22:21;;;;;;;3.00;2.70;;;24.80;99.90;;;;;;5035004;28;20227;-77
2022/05/10 12:24:50;;;;;;;4.37;3.10;;;24.90;99.90;;;;;;5034704;28;20626;-77
2022/05/10 12:27:16;;;;;;;6.03;3.17;;;25.00;99.90;;;;;;5017604;28;20561;-77
2022/05/10 12:29:41;;;;;;;4.07;2.80;;;25.00;99.90;;;;;;5034521;28;20238;-77
2022/05/10 12:32:27;;;;;;;5.43;3.20;;;25.00;99.90;;;;;;5034359;28;20259;-78
2022/05/10 12:34:53;;;;;;;6.90;3.30;;;24.90;99.90;;;;;;5016676;28;20196;-77
2022/05/10 12:40:15;;;;;;;5.87;3.03;;;24.60;99.90;;;;;;5034144;28;20208;-77
2022/05/10 12:42:53;;;;;;;4.50;3.23;;;24.50;99.90;;;;;;5034519;28;20264;-77
2022/05/10 12:45:48;;;;;;;6.13;2.80;;;24.50;99.90;;;;;;5016435;28;20199;-78
2022/05/10 12:48:50;;;;;;;5.07;3.47;;;24.60;99.90;;;;;;5016748;28;20311;-77
2022/05/10 12:51:22;;;;;;;4.03;2.70;;;24.60;99.90;;;;;;5034204;28;20152;-77
2022/05/10 12:53:51;;;;;;;6.47;2.90;;;24.60;99.90;;;;;;5033987;28;20650;-77
2022/05/10 12:56:32;;;;;;;7.07;3.33;;;24.60;99.90;;;;;;5016306;28;20246;-77
2022/05/10 12:59:14;;;;;;;9.40;3.30;;;24.70;99.90;;;;;;5033827;28;20223;-76
2022/05/10 13:01:41;;;;;;;4.13;3.27;;;24.70;99.90;;;;;;5034072;28;20650;-77
2022/05/10 13:04:15;;;;;;;5.60;2.83;;;24.70;99.90;;;;;;5034097;28;20255;-77
2022/05/10 13:07:04;;;;;;;5.83;2.90;;;24.70;99.90;;;;;;5033747;28;20691;-77
2022/05/10 13:09:39;;;;;;;14.33;3.07;;;24.80;99.90;;;;;;5015949;28;20196;-77
2022/05/10 13:12:19;;;;;;;6.07;3.43;;;24.80;99.90;;;;;;5033892;28;20161;-76
2022/05/10 13:14:48;;;;;;;4.30;2.90;;;24.80;99.90;;;;;;5033867;28;20188;-76
2022/05/10 13:17:24;;;;;;;5.17;2.73;;;24.80;99.90;;;;;;5034091;28;20164;-77
2022/05/10 13:19:50;;;;;;;3.07;2.70;;;24.80;99.90;;;;;;5015807;28;20235;-76
2022/05/10 13:22:18;;;;;;;4.17;3.00;;;24.80;99.90;;;;;;5015986;28;20191;-76
2022/05/10 13:24:56;;;;;;;5.30;2.50;;;24.90;99.90;;;;;;5033365;28;20168;-76
2022/05/10 13:27:28;;;;;;;5.37;2.60;;;25.00;99.90;;;;;;5015722;28;20168;-76
2022/05/10 13:29:56;;;;;;;7.77;2.80;;;25.10;99.90;;;;;;5033581;28;20674;-77
2022/05/10 13:32:52;;;;;;;5.30;2.77;;;25.20;99.90;;;;;;5033339;28;20694;-76
2022/05/10 13:35:26;;;;;;;4.77;2.53;;;25.20;99.90;;;;;;4998799;28;20208;-76
2022/05/10 13:38:18;;;;;;;4.57;2.70;;;25.20;99.90;;;;;;5015504;28;20267;-76
2022/05/10 13:40:47;;;;;;;4.77;3.00;;;25.20;99.90;;;;;;5033328;28;20208;-76